createdAt,value
2023-05-14T00:01:29.287Z,6.60
2023-05-14T00:04:01.159Z,6.03
2023-05-14T00:06:40.963Z,6.82
2023-05-14T00:09:13.257Z,5.57
2023-05-14T00:11:44.866Z,9.15
2023-05-14T00:14:16.470Z,6.05
2023-05-14T00:16:48.020Z,6.68
2023-05-14T00:19:19.651Z,8.38
2023-05-14T00:21:53.995Z,6.93
2023-05-14T00:24:25.605Z,7.47
2023-05-14T00:26:57.172Z,7.03
2023-05-14T00:29:28.898Z,6.00
2023-05-14T00:32:00.540Z,7.35
2023-05-14T00:34:32.145Z,6.25
2023-05-14T00:37:03.769Z,6.50
2023-05-14T00:39:37.679Z,8.88
2023-05-14T00:42:12.308Z,6.22
2023-05-14T00:44:43.845Z,8.23
2023-05-14T00:47:15.966Z,8.60
2023-05-14T00:49:47.561Z,6.63
2023-05-14T00:52:19.728Z,7.20
2023-05-14T00:54:51.854Z,7.93
2023-05-14T00:57:23.458Z,7.78
2023-05-14T00:59:55.504Z,9.73
2023-05-14T01:02:27.148Z,7.05
2023-05-14T01:04:58.828Z,7.22
2023-05-14T01:07:44.234Z,8.65
2023-05-14T01:10:29.325Z,7.55
2023-05-14T01:13:31.949Z,7.68
2023-05-14T01:16:05.084Z,7.68
2023-05-14T01:18:37.200Z,7.15
2023-05-14T01:21:43.163Z,7.90
2023-05-14T01:24:14.769Z,8.45
2023-05-14T01:26:46.475Z,7.43
2023-05-14T01:29:29.150Z,7.13
2023-05-14T01:32:04.319Z,8.05
2023-05-14T01:34:39.568Z,7.43
2023-05-14T01:37:12.840Z,8.63
2023-05-14T01:39:45.772Z,9.40
2023-05-14T01:42:17.384Z,6.97
2023-05-14T01:44:49.233Z,8.40
2023-05-14T01:47:20.879Z,7.18
2023-05-14T01:49:52.485Z,8.70
2023-05-14T01:52:24.168Z,6.03
2023-05-14T01:54:58.453Z,7.07
2023-05-14T01:57:30.061Z,6.05
2023-05-14T02:00:02.141Z,7.13
2023-05-14T02:02:33.890Z,9.38
2023-05-14T02:05:07.162Z,7.57
2023-05-14T02:07:39.330Z,7.32
2023-05-14T02:10:11.421Z,6.18
2023-05-14T02:12:43.026Z,8.82
2023-05-14T02:15:14.563Z,7.05
2023-05-14T02:17:46.127Z,6.07
2023-05-14T02:20:17.829Z,7.55
2023-05-14T02:22:49.381Z,7.82
2023-05-14T02:25:20.967Z,6.45
2023-05-14T02:27:52.526Z,7.10
2023-05-14T02:30:24.348Z,8.18
2023-05-14T02:32:56.286Z,6.63
2023-05-14T02:35:27.909Z,9.38
2023-05-14T02:37:59.641Z,7.60
2023-05-14T02:40:31.355Z,8.07
2023-05-14T02:43:03.011Z,8.25
2023-05-14T02:45:34.608Z,8.18
2023-05-14T02:48:06.627Z,9.65
2023-05-14T02:50:38.201Z,8.10
2023-05-14T02:53:09.879Z,9.27
2023-05-14T02:55:41.425Z,7.75
2023-05-14T02:58:16.058Z,7.50
2023-05-14T03:00:47.693Z,8.02
2023-05-14T03:03:22.120Z,8.05
2023-05-14T03:05:56.476Z,8.45
2023-05-14T03:08:28.085Z,7.53
2023-05-14T03:10:59.636Z,8.20
2023-05-14T03:13:31.226Z,8.07
2023-05-14T03:16:02.725Z,8.18
2023-05-14T03:18:36.299Z,8.77
2023-05-14T03:21:09.106Z,10.18
2023-05-14T03:23:40.946Z,8.35
2023-05-14T03:26:12.548Z,9.43
2023-05-14T03:28:44.963Z,8.30
2023-05-14T03:31:16.620Z,9.88
2023-05-14T03:33:48.447Z,8.38
2023-05-14T03:36:23.064Z,8.15
2023-05-14T03:38:54.620Z,8.07
2023-05-14T03:41:26.228Z,9.98
2023-05-14T03:43:57.810Z,9.50
2023-05-14T03:46:30.671Z,10.63
2023-05-14T03:49:02.340Z,9.05
2023-05-14T03:51:34.032Z,9.23
2023-05-14T03:54:07.078Z,8.00
2023-05-14T03:56:38.680Z,9.48
2023-05-14T03:59:10.334Z,8.43
2023-05-14T04:01:42.039Z,8.23
2023-05-14T04:04:13.749Z,8.20
2023-05-14T04:06:45.444Z,7.95
2023-05-14T04:09:17.044Z,9.65
2023-05-14T04:11:48.589Z,8.50
2023-05-14T04:14:20.173Z,11.23
2023-05-14T04:16:51.814Z,9.02
2023-05-14T04:19:25.531Z,7.70
2023-05-14T04:21:57.138Z,9.05
2023-05-14T04:24:31.891Z,7.50
2023-05-14T04:27:04.297Z,7.65
2023-05-14T04:29:35.921Z,8.05
2023-05-14T04:32:07.805Z,7.38
2023-05-14T04:34:40.033Z,8.48
2023-05-14T04:37:11.662Z,7.38
2023-05-14T04:39:43.603Z,7.03
2023-05-14T04:42:15.190Z,6.70
2023-05-14T04:44:46.803Z,6.65
2023-05-14T04:47:18.454Z,7.20
2023-05-14T04:49:50.295Z,6.80
2023-05-14T04:52:24.332Z,6.88
2023-05-14T04:54:56.953Z,8.13
2023-05-14T04:57:28.549Z,6.70
2023-05-14T05:00:00.124Z,7.80
2023-05-14T05:02:56.706Z,7.28
2023-05-14T05:05:42.907Z,7.10
2023-05-14T05:08:14.485Z,5.85
2023-05-14T05:10:46.139Z,6.00
2023-05-14T05:13:17.820Z,6.10
2023-05-14T05:15:49.439Z,6.15
2023-05-14T05:18:21.244Z,6.45
2023-05-14T05:20:56.219Z,6.47
2023-05-14T05:25:59.255Z,7.18
2023-05-14T05:28:31.045Z,6.75
2023-05-14T05:31:02.946Z,8.77
2023-05-14T05:33:35.408Z,6.90
2023-05-14T05:36:09.715Z,7.05
2023-05-14T05:38:41.435Z,8.68
2023-05-14T05:41:13.065Z,7.28
2023-05-14T05:43:44.656Z,7.28
2023-05-14T05:46:16.414Z,7.30
2023-05-14T05:48:47.986Z,8.05
2023-05-14T05:51:19.656Z,10.90
2023-05-14T05:53:51.242Z,11.15
2023-05-14T05:56:22.809Z,9.48
2023-05-14T05:58:54.358Z,10.35
2023-05-14T06:01:26.724Z,9.50
2023-05-14T06:03:58.667Z,10.00
2023-05-14T06:06:30.791Z,9.77
2023-05-14T06:09:02.488Z,9.10
2023-05-14T06:11:34.112Z,8.57
2023-05-14T06:14:05.701Z,7.90
2023-05-14T06:16:44.484Z,8.82
2023-05-14T06:19:16.176Z,8.63
2023-05-14T06:21:47.891Z,8.00
2023-05-14T06:24:20.394Z,9.18
2023-05-14T06:26:52.057Z,8.45
2023-05-14T06:29:23.717Z,9.63
2023-05-14T06:32:03.095Z,9.90
2023-05-14T06:34:34.730Z,9.35
2023-05-14T06:37:07.135Z,7.68
2023-05-14T06:39:39.277Z,6.35
2023-05-14T06:42:10.847Z,9.68
2023-05-14T06:44:42.912Z,6.75
2023-05-14T06:47:14.538Z,7.03
2023-05-14T06:49:46.354Z,6.53
2023-05-14T06:52:17.969Z,5.97
2023-05-14T06:54:49.681Z,7.07
2023-05-14T06:57:21.363Z,6.63
2023-05-14T06:59:55.793Z,7.57
2023-05-14T07:02:29.688Z,7.60
2023-05-14T07:05:04.448Z,7.60
2023-05-14T07:07:36.029Z,6.63
2023-05-14T07:10:10.598Z,8.00
2023-05-14T07:12:42.394Z,6.15
2023-05-14T07:15:14.019Z,7.68
2023-05-14T07:17:45.682Z,8.10
2023-05-14T07:20:17.331Z,7.28
2023-05-14T07:22:49.002Z,8.10
2023-05-14T07:25:20.685Z,8.05
2023-05-14T07:27:52.303Z,8.20
2023-05-14T07:30:24.752Z,10.07
2023-05-14T07:32:56.848Z,12.32
2023-05-14T07:35:28.523Z,9.50
2023-05-14T07:38:00.352Z,10.20
2023-05-14T07:40:32.000Z,8.50
2023-05-14T07:43:03.628Z,10.18
2023-05-14T07:45:37.203Z,12.20
2023-05-14T07:48:09.090Z,11.63
2023-05-14T07:50:40.814Z,8.98
2023-05-14T07:53:15.615Z,9.70
2023-05-14T07:55:49.250Z,9.55
2023-05-14T07:58:20.824Z,8.73
2023-05-14T08:00:56.682Z,9.32
2023-05-14T08:03:28.479Z,8.82
2023-05-14T08:06:00.174Z,11.10
2023-05-14T08:08:31.863Z,10.18
2023-05-14T08:11:04.184Z,10.10
2023-05-14T08:13:38.112Z,9.18
2023-05-14T08:16:10.064Z,9.02
2023-05-14T08:18:44.044Z,8.38
2023-05-14T08:21:18.356Z,7.95
2023-05-14T08:23:49.883Z,10.77
2023-05-14T08:26:24.242Z,7.28
2023-05-14T08:28:55.862Z,6.78
2023-05-14T08:31:27.458Z,8.25
2023-05-14T08:33:59.194Z,8.85
2023-05-14T08:36:33.523Z,8.63
2023-05-14T08:39:09.094Z,10.77
2023-05-14T08:41:41.357Z,7.47
2023-05-14T08:44:20.896Z,7.78
2023-05-14T08:46:54.512Z,7.25
2023-05-14T08:49:43.086Z,7.18
2023-05-14T08:52:18.148Z,6.47
2023-05-14T08:54:53.646Z,7.75
2023-05-14T08:57:26.719Z,8.63
2023-05-14T08:59:58.550Z,7.53
2023-05-14T09:02:31.755Z,7.47
2023-05-14T09:05:04.289Z,6.88
2023-05-14T09:07:36.329Z,7.22
2023-05-14T09:10:09.182Z,7.53
2023-05-14T09:12:40.836Z,9.80
2023-05-14T09:15:13.226Z,7.80
2023-05-14T09:17:47.955Z,8.25
2023-05-14T09:20:22.593Z,7.70
2023-05-14T09:25:28.462Z,7.57
2023-05-14T09:28:00.149Z,7.05
2023-05-14T09:30:32.247Z,7.40
2023-05-14T09:33:04.350Z,7.10
2023-05-14T09:35:41.436Z,8.63
2023-05-14T09:38:16.074Z,7.75
2023-05-14T09:40:48.167Z,7.28
2023-05-14T09:43:19.945Z,7.32
2023-05-14T09:45:52.660Z,7.07
2023-05-14T09:48:26.240Z,7.75
2023-05-14T09:50:57.918Z,8.57
2023-05-14T09:53:32.727Z,5.88
2023-05-14T09:56:04.613Z,6.32
2023-05-14T09:58:36.307Z,8.57
2023-05-14T10:01:08.332Z,6.95
2023-05-14T10:03:40.571Z,6.60
2023-05-14T10:06:16.242Z,8.13
2023-05-14T10:08:49.402Z,6.90
2023-05-14T10:11:33.320Z,6.35
2023-05-14T10:14:09.216Z,6.22
2023-05-14T10:16:48.480Z,7.05
2023-05-14T10:19:25.575Z,6.53
2023-05-14T10:22:05.104Z,8.18
2023-05-14T10:24:39.125Z,8.00
2023-05-14T10:27:13.226Z,6.38
2023-05-14T10:29:55.561Z,6.57
2023-05-14T10:32:27.395Z,6.32
2023-05-14T10:35:01.853Z,6.60
2023-05-14T10:37:33.458Z,8.20
2023-05-14T10:40:10.056Z,7.13
2023-05-14T10:42:43.763Z,5.68
2023-05-14T10:45:15.961Z,6.30
2023-05-14T10:47:48.740Z,6.07
2023-05-14T10:50:21.109Z,6.03
2023-05-14T10:52:57.108Z,7.20
2023-05-14T10:55:28.714Z,7.28
2023-05-14T10:58:01.465Z,6.22
2023-05-14T11:00:36.758Z,7.43
2023-05-14T11:03:10.863Z,8.43
2023-05-14T11:05:42.488Z,5.68
2023-05-14T11:08:17.022Z,7.25
2023-05-14T11:10:49.394Z,6.55
2023-05-14T11:13:21.685Z,6.13
2023-05-14T11:15:53.655Z,5.93
2023-05-14T11:18:33.554Z,7.38
2023-05-14T11:21:07.644Z,7.70
2023-05-14T11:23:39.217Z,6.35
2023-05-14T11:26:11.390Z,6.10
2023-05-14T11:28:44.592Z,5.55
2023-05-14T11:31:19.587Z,7.15
2023-05-14T11:33:52.498Z,5.43
2023-05-14T11:36:24.151Z,7.45
2023-05-14T11:38:55.730Z,5.28
2023-05-14T11:41:31.380Z,5.47
2023-05-14T11:44:03.494Z,5.68
2023-05-14T11:46:35.212Z,5.03
2023-05-14T11:49:07.062Z,6.45
2023-05-14T11:51:38.629Z,5.13
2023-05-14T11:54:10.620Z,4.65
2023-05-14T11:56:42.249Z,5.10
2023-05-14T11:59:13.831Z,4.45
2023-05-14T12:01:50.720Z,4.45
2023-05-14T12:04:22.908Z,4.57
2023-05-14T12:06:57.681Z,3.83
2023-05-14T12:09:29.230Z,4.15
2023-05-14T12:12:11.967Z,5.28
2023-05-14T12:14:45.266Z,4.80
2023-05-14T12:17:22.156Z,4.25
2023-05-14T12:19:53.919Z,5.18
2023-05-14T12:22:25.583Z,4.75
2023-05-14T12:24:59.953Z,5.05
2023-05-14T12:27:31.596Z,4.85
2023-05-14T12:30:20.593Z,4.75
2023-05-14T12:32:53.714Z,6.05
2023-05-14T12:35:25.523Z,5.35
2023-05-14T12:37:57.326Z,6.13
2023-05-14T12:40:29.062Z,5.07
2023-05-14T12:43:00.692Z,4.97
2023-05-14T12:45:32.419Z,4.82
2023-05-14T12:48:04.532Z,4.63
2023-05-14T12:50:36.093Z,4.28
2023-05-14T12:53:07.677Z,6.78
2023-05-14T12:55:39.285Z,3.90
2023-05-14T12:58:10.878Z,4.40
2023-05-14T13:00:42.467Z,3.28
2023-05-14T13:03:14.238Z,4.68
2023-05-14T13:05:45.946Z,4.45
2023-05-14T13:08:18.022Z,4.55
2023-05-14T13:10:49.646Z,3.88
2023-05-14T13:13:24.400Z,4.90
2023-05-14T13:18:27.528Z,4.57
2023-05-14T13:21:04.360Z,4.35
2023-05-14T13:23:36.041Z,3.70
2023-05-14T13:26:07.786Z,5.70
2023-05-14T13:28:39.519Z,4.93
2023-05-14T13:31:13.230Z,5.07
2023-05-14T13:33:45.285Z,4.05
2023-05-14T13:36:16.988Z,5.07
2023-05-14T13:38:50.947Z,7.15
2023-05-14T13:41:22.675Z,4.65
2023-05-14T13:43:54.250Z,4.82
2023-05-14T13:46:26.327Z,2.85
2023-05-14T13:48:59.944Z,4.82
2023-05-14T13:51:31.529Z,3.95
2023-05-14T13:54:03.944Z,4.43
2023-05-14T13:56:35.608Z,4.10
2023-05-14T13:59:07.274Z,4.30
2023-05-14T14:01:38.942Z,4.65
2023-05-14T14:04:10.756Z,5.47
2023-05-14T14:06:44.679Z,3.85
2023-05-14T14:09:16.242Z,2.92
2023-05-14T14:11:48.513Z,4.55
2023-05-14T14:14:20.300Z,2.92
2023-05-14T14:16:53.004Z,3.67
2023-05-14T14:19:24.671Z,3.40
2023-05-14T14:21:58.336Z,3.83
2023-05-14T14:24:29.907Z,3.42
2023-05-14T14:27:02.433Z,3.03
2023-05-14T14:29:34.471Z,4.40
2023-05-14T14:32:06.715Z,2.90
2023-05-14T14:34:38.339Z,3.30
2023-05-14T14:37:10.055Z,3.53
2023-05-14T14:39:41.757Z,3.92
2023-05-14T14:42:13.447Z,3.63
2023-05-14T14:44:45.050Z,2.60
2023-05-14T14:47:16.617Z,3.25
2023-05-14T14:49:48.242Z,2.70
2023-05-14T14:52:19.901Z,2.42
2023-05-14T14:54:54.298Z,2.33
2023-05-14T14:57:26.740Z,2.40
2023-05-14T14:59:59.160Z,2.78
2023-05-14T15:02:31.605Z,2.25
2023-05-14T15:05:03.376Z,2.75
2023-05-14T15:07:34.977Z,2.08
2023-05-14T15:10:07.437Z,2.78
2023-05-14T15:12:39.139Z,2.92
2023-05-14T15:15:13.332Z,2.08
2023-05-14T15:17:47.991Z,4.93
2023-05-14T15:22:52.441Z,7.07
2023-05-14T15:25:25.311Z,4.43
2023-05-14T15:27:57.073Z,5.63
2023-05-14T15:30:28.774Z,5.78
2023-05-14T15:33:00.721Z,5.55
2023-05-14T15:35:34.846Z,5.13
2023-05-14T15:38:07.008Z,5.88
2023-05-14T15:40:38.628Z,6.57
2023-05-14T15:43:13.055Z,6.30
2023-05-14T15:45:49.098Z,7.10
2023-05-14T15:48:20.712Z,8.15
2023-05-14T15:50:59.136Z,6.45
2023-05-14T15:53:30.745Z,8.88
2023-05-14T15:56:02.911Z,8.00
2023-05-14T15:58:34.564Z,7.85
2023-05-14T16:01:06.087Z,9.30
2023-05-14T16:03:37.862Z,9.35
2023-05-14T16:06:10.165Z,9.77
2023-05-14T16:08:41.704Z,11.15
2023-05-14T16:11:13.753Z,9.90
2023-05-14T16:13:45.319Z,12.07
2023-05-14T16:16:17.000Z,8.13
2023-05-14T16:18:51.734Z,7.32
2023-05-14T16:21:23.396Z,3.67
2023-05-14T16:23:54.964Z,3.05
2023-05-14T16:26:26.629Z,1.05
2023-05-14T16:28:58.223Z,0.75
2023-05-14T16:31:31.481Z,0.90
2023-05-14T16:34:06.153Z,1.17
2023-05-14T16:36:37.790Z,0.63
2023-05-14T16:39:09.349Z,0.43
2023-05-14T16:41:41.125Z,0.70
2023-05-14T16:44:18.544Z,0.85
2023-05-14T16:46:50.844Z,0.45
2023-05-14T16:49:22.890Z,0.17
2023-05-14T16:51:57.505Z,4.40
2023-05-14T16:54:29.059Z,2.15
2023-05-14T16:57:00.649Z,0.60
2023-05-14T16:59:32.202Z,1.13
2023-05-14T17:02:04.036Z,2.47
2023-05-14T17:04:38.830Z,0.65
2023-05-14T17:07:11.583Z,0.28
2023-05-14T17:09:43.223Z,0.82
2023-05-14T17:12:14.870Z,0.60
2023-05-14T17:14:46.424Z,1.10
2023-05-14T17:17:18.728Z,0.57
2023-05-14T17:19:50.347Z,1.67
2023-05-14T17:22:21.937Z,1.15
2023-05-14T17:24:53.515Z,1.65
2023-05-14T17:27:26.153Z,2.22
2023-05-14T17:29:57.738Z,1.92
2023-05-14T17:32:30.073Z,1.25
2023-05-14T17:35:01.758Z,2.33
2023-05-14T17:37:33.412Z,1.63
2023-05-14T17:40:10.089Z,1.95
2023-05-14T17:42:41.753Z,1.88
2023-05-14T17:45:14.494Z,2.85
2023-05-14T17:47:49.310Z,1.50
2023-05-14T17:50:21.113Z,1.13
2023-05-14T17:52:53.343Z,2.72
2023-05-14T17:55:25.917Z,1.73
2023-05-14T17:57:57.773Z,1.00
2023-05-14T18:00:30.156Z,0.65
2023-05-14T18:03:02.420Z,1.02
2023-05-14T18:05:34.828Z,1.20
2023-05-14T18:08:06.537Z,1.05
2023-05-14T18:10:38.378Z,2.70
2023-05-14T18:13:10.050Z,0.80
2023-05-14T18:15:41.957Z,0.80
2023-05-14T18:18:17.116Z,0.90
2023-05-14T18:23:21.264Z,1.25
2023-05-14T18:25:52.975Z,2.45
2023-05-14T18:28:24.704Z,1.25
2023-05-14T18:30:59.489Z,2.35
2023-05-14T18:33:35.044Z,1.35
2023-05-14T18:36:06.754Z,2.55
2023-05-14T18:38:38.578Z,2.38
2023-05-14T18:41:10.244Z,1.15
2023-05-14T18:43:41.860Z,1.60
2023-05-14T18:46:16.229Z,0.93
2023-05-14T18:48:47.947Z,2.38
2023-05-14T18:51:19.531Z,1.98
2023-05-14T18:53:51.096Z,3.50
2023-05-14T18:56:22.679Z,2.97
2023-05-14T18:58:54.402Z,1.70
2023-05-14T19:01:26.211Z,2.35
2023-05-14T19:03:57.905Z,2.40
2023-05-14T19:06:29.614Z,3.13
2023-05-14T19:09:01.453Z,3.75
2023-05-14T19:11:33.067Z,1.95
2023-05-14T19:14:04.647Z,3.03
2023-05-14T19:16:38.702Z,2.22
2023-05-14T19:19:10.497Z,1.75
2023-05-14T19:21:42.168Z,3.08
2023-05-14T19:24:13.921Z,2.80
2023-05-14T19:26:47.689Z,3.15
2023-05-14T19:29:22.260Z,3.20
2023-05-14T19:31:53.888Z,2.90
2023-05-14T19:34:27.111Z,3.05
2023-05-14T19:36:58.830Z,3.25
2023-05-14T19:39:33.543Z,4.18
2023-05-14T19:42:05.772Z,3.08
2023-05-14T19:44:37.419Z,3.10
2023-05-14T19:47:09.137Z,4.05
2023-05-14T19:49:41.301Z,2.40
2023-05-14T19:52:13.087Z,2.63
2023-05-14T19:54:44.662Z,2.75
2023-05-14T19:57:19.430Z,2.83
2023-05-14T19:59:51.014Z,3.15
2023-05-14T20:02:22.712Z,3.38
2023-05-14T20:04:56.673Z,2.40
2023-05-14T20:07:29.445Z,2.22
2023-05-14T20:10:01.434Z,3.08
2023-05-14T20:12:35.863Z,2.60
2023-05-14T20:15:10.415Z,5.32
2023-05-14T20:17:42.546Z,3.15
2023-05-14T20:20:14.341Z,3.80
2023-05-14T20:22:45.957Z,4.40
2023-05-14T20:25:17.599Z,4.15
2023-05-14T20:27:49.602Z,4.28
2023-05-14T20:30:21.148Z,4.68
2023-05-14T20:32:52.955Z,4.25
2023-05-14T20:35:24.821Z,4.18
2023-05-14T20:37:56.647Z,3.90
2023-05-14T20:40:28.237Z,5.07
2023-05-14T20:43:07.081Z,4.57
2023-05-14T20:45:39.165Z,3.95
2023-05-14T20:48:12.868Z,4.75
2023-05-14T20:50:44.595Z,4.35
2023-05-14T20:53:16.203Z,3.45
2023-05-14T20:55:47.830Z,3.72
2023-05-14T20:58:20.445Z,3.20
2023-05-14T21:00:52.118Z,3.42
2023-05-14T21:03:23.879Z,3.63
2023-05-14T21:05:56.848Z,5.00
2023-05-14T21:08:28.914Z,4.35
2023-05-14T21:11:00.570Z,3.65
2023-05-14T21:13:32.600Z,3.63
2023-05-14T21:16:04.575Z,3.05
2023-05-14T21:18:36.650Z,3.67
2023-05-14T21:21:08.345Z,2.83
2023-05-14T21:23:39.973Z,4.05
2023-05-14T21:26:11.733Z,4.03
2023-05-14T21:28:43.420Z,3.58
2023-05-14T21:31:15.056Z,2.63
2023-05-14T21:33:46.742Z,5.43
2023-05-14T21:36:18.415Z,2.28
2023-05-14T21:38:50.059Z,4.75
2023-05-14T21:41:21.787Z,2.88
2023-05-14T21:43:55.530Z,2.10
2023-05-14T21:46:28.877Z,3.33
2023-05-14T21:49:02.719Z,3.33
2023-05-14T21:51:34.314Z,4.32
2023-05-14T21:54:07.244Z,4.32
2023-05-14T21:56:38.860Z,3.70
2023-05-14T21:59:11.177Z,3.90
2023-05-14T22:02:04.732Z,3.47
2023-05-14T22:04:37.838Z,3.17
2023-05-14T22:07:09.411Z,4.78
2023-05-14T22:09:44.080Z,4.10
2023-05-14T22:12:15.636Z,3.65
2023-05-14T22:14:47.252Z,4.45
2023-05-14T22:17:18.821Z,2.38
2023-05-14T22:19:50.412Z,1.73
2023-05-14T22:22:21.992Z,1.50
2023-05-14T22:24:53.752Z,3.20
2023-05-14T22:27:25.684Z,2.55
2023-05-14T22:29:58.441Z,3.70
2023-05-14T22:32:30.140Z,2.30
2023-05-14T22:35:01.991Z,1.15
2023-05-14T22:37:33.646Z,1.17
2023-05-14T22:40:07.733Z,1.52
2023-05-14T22:42:39.359Z,1.40
2023-05-14T22:45:11.355Z,1.60
2023-05-14T22:47:42.978Z,1.48
2023-05-14T22:50:15.221Z,1.70
2023-05-14T22:52:46.764Z,3.72
2023-05-14T22:55:18.379Z,2.50
2023-05-14T22:57:49.981Z,1.27
2023-05-14T23:00:21.745Z,2.42
2023-05-14T23:02:53.377Z,3.60
2023-05-14T23:05:25.379Z,2.90
2023-05-14T23:08:02.518Z,2.20
2023-05-14T23:10:35.602Z,4.40
2023-05-14T23:13:07.268Z,2.47
2023-05-14T23:15:38.957Z,3.72
2023-05-14T23:18:10.871Z,2.70
2023-05-14T23:20:42.561Z,2.40
2023-05-14T23:23:14.130Z,5.03
2023-05-14T23:25:45.799Z,2.22
2023-05-14T23:28:18.534Z,3.00
2023-05-14T23:30:50.119Z,2.67
2023-05-14T23:33:21.676Z,3.78
2023-05-14T23:35:53.274Z,7.70
2023-05-14T23:38:24.908Z,3.00
2023-05-14T23:40:56.493Z,3.25
2023-05-14T23:43:28.303Z,2.88
2023-05-14T23:46:00.539Z,3.35
2023-05-14T23:48:32.696Z,3.30
2023-05-14T23:51:04.266Z,2.72
2023-05-14T23:53:35.828Z,2.05
2023-05-14T23:56:10.108Z,3.58
2023-05-14T23:58:42.058Z,3.33
